Time;durP1;ratioP1;P1;durP2;ratioP2;P2;SDS_P1;SDS_P2;PMS_P1;PMS_P2;Temp;Humidity;BMP_temperature;BMP_pressure;BME280_temperature;BME280_humidity;BME280_pressure;Samples;Min_cycle;Max_cycle;Signal;HPM_P1;HPM_P2
2022/10/06 00:01:25;;;;;;;4.93;1.80;;;12.80;94.90;;;;;;5034608;28;20087;-62
2022/10/06 00:03:51;;;;;;;4.10;1.90;;;12.80;95.40;;;;;;5031414;28;20032;-62
2022/10/06 00:06:17;;;;;;;7.07;2.00;;;12.80;94.80;;;;;;5034810;28;20026;-63
2022/10/06 00:08:44;;;;;;;6.38;2.15;;;12.70;95.60;;;;;;5033863;28;20071;-64
2022/10/06 00:11:12;;;;;;;3.70;1.75;;;12.60;95.80;;;;;;5033484;28;20022;-63
2022/10/06 00:13:37;;;;;;;6.55;2.13;;;12.90;95.10;;;;;;5033776;28;20120;-63
2022/10/06 00:16:11;;;;;;;5.78;1.70;;;13.10;94.30;;;;;;5034466;28;20025;-63
2022/10/06 00:18:37;;;;;;;;;;;13.20;94.00;;;;;;5033974;28;20030;-63
2022/10/06 00:21:03;;;;;;;7.47;2.00;;;13.40;92.00;;;;;;5033553;28;19960;-63
2022/10/06 00:23:29;;;;;;;9.18;2.15;;;13.60;92.20;;;;;;5033489;28;20028;-63
2022/10/06 00:25:55;;;;;;;6.32;1.90;;;13.60;91.60;;;;;;5032270;28;20068;-63
2022/10/06 00:28:20;;;;;;;9.63;2.40;;;13.70;91.40;;;;;;5034770;28;20018;-63
2022/10/06 00:30:46;;;;;;;6.20;2.05;;;13.70;91.20;;;;;;5034495;28;20121;-63
2022/10/06 00:33:15;;;;;;;6.15;2.00;;;13.70;91.90;;;;;;5032266;28;20034;-64
2022/10/06 00:35:42;;;;;;;6.57;1.90;;;13.60;91.20;;;;;;5032169;28;20026;-63
2022/10/06 00:38:11;;;;;;;9.07;2.35;;;13.50;93.00;;;;;;5030802;28;20053;-63
2022/10/06 00:40:46;;;;;;;9.85;3.08;;;13.90;90.30;;;;;;5030863;28;20310;-64
2022/10/06 00:43:53;;;;;;;6.13;2.00;;;14.20;90.20;;;;;;5034509;28;20392;-63
2022/10/06 00:46:36;;;;;;;7.90;2.22;;;14.00;91.20;;;;;;5019600;28;20049;-63
2022/10/06 00:49:05;;;;;;;5.88;1.85;;;13.80;91.40;;;;;;5031496;28;20083;-64
2022/10/06 00:51:32;;;;;;;6.80;2.10;;;14.10;90.20;;;;;;5032940;28;20026;-64
2022/10/06 00:53:59;;;;;;;7.85;1.70;;;14.20;90.00;;;;;;5031939;28;20049;-64
2022/10/06 00:56:25;;;;;;;8.82;2.30;;;14.30;89.20;;;;;;5037236;28;20025;-63
2022/10/06 00:58:51;;;;;;;8.25;2.15;;;14.40;89.50;;;;;;5035649;28;20048;-63
2022/10/06 01:01:16;;;;;;;7.15;2.20;;;14.30;89.70;;;;;;5037922;28;20095;-63
2022/10/06 01:03:54;;;;;;;6.43;2.10;;;14.20;90.30;;;;;;5035535;28;20030;-63
2022/10/06 01:06:20;;;;;;;7.45;1.77;;;14.20;90.00;;;;;;5035449;28;20422;-65
2022/10/06 01:08:46;;;;;;;4.95;1.80;;;14.50;88.70;;;;;;5023828;28;20030;-64
2022/10/06 01:11:13;;;;;;;8.68;1.90;;;14.80;88.10;;;;;;5033798;28;20025;-65
2022/10/06 01:13:42;;;;;;;6.43;1.88;;;14.80;88.60;;;;;;5030577;28;20022;-64
2022/10/06 01:16:25;;;;;;;5.43;2.00;;;14.90;87.80;;;;;;5034333;28;20030;-66
2022/10/06 01:18:53;;;;;;;5.37;1.93;;;14.90;87.90;;;;;;5031016;28;20025;-65
2022/10/06 01:21:32;;;;;;;7.65;2.00;;;14.80;88.70;;;;;;5037594;28;20426;-65
2022/10/06 01:24:00;;;;;;;6.28;2.13;;;14.80;88.20;;;;;;5022796;28;20469;-64
2022/10/06 01:26:27;;;;;;;6.28;1.83;;;14.70;88.50;;;;;;5033340;28;20021;-65
2022/10/06 01:28:53;;;;;;;4.78;1.95;;;14.50;89.50;;;;;;5032202;28;20064;-65
2022/10/06 01:31:19;;;;;;;9.70;2.00;;;14.30;90.50;;;;;;5034069;28;20057;-65
2022/10/06 01:33:50;;;;;;;10.25;2.17;;;14.20;91.00;;;;;;5029735;28;20032;-64
2022/10/06 01:36:16;;;;;;;7.10;2.13;;;14.10;91.30;;;;;;5028018;28;20060;-65
2022/10/06 01:38:42;;;;;;;7.55;2.25;;;13.90;91.90;;;;;;5028451;28;20033;-65
2022/10/06 01:41:07;;;;;;;7.80;2.08;;;13.80;92.10;;;;;;5035257;28;20033;-66
2022/10/06 01:43:33;;;;;;;7.93;2.30;;;13.60;93.30;;;;;;5035195;28;20048;-63
2022/10/06 01:45:59;;;;;;;8.07;2.42;;;13.50;93.20;;;;;;5038125;28;20029;-65
2022/10/06 01:48:25;;;;;;;7.15;2.00;;;13.40;93.60;;;;;;5029221;28;20067;-64
2022/10/06 01:50:51;;;;;;;8.00;2.47;;;13.40;93.40;;;;;;5036285;28;20323;-65
2022/10/06 01:53:17;;;;;;;8.15;2.17;;;13.70;93.00;;;;;;5032415;28;20013;-65
2022/10/06 01:55:43;;;;;;;6.32;2.38;;;13.60;93.50;;;;;;5036048;28;20094;-65
2022/10/06 01:58:09;;;;;;;9.20;2.20;;;13.50;94.00;;;;;;5033686;28;20097;-65
2022/10/06 02:00:35;;;;;;;5.68;2.17;;;13.40;93.50;;;;;;5037201;28;20038;-65
2022/10/06 02:03:01;;;;;;;5.78;2.03;;;13.40;94.10;;;;;;5036783;28;20105;-65
2022/10/06 02:05:26;;;;;;;4.70;1.95;;;13.40;93.90;;;;;;5035539;28;20112;-65
2022/10/06 02:07:52;;;;;;;6.60;2.20;;;13.70;92.60;;;;;;5034072;28;20022;-65
2022/10/06 02:10:18;;;;;;;7.32;1.95;;;13.80;92.90;;;;;;5032460;28;20022;-65
2022/10/06 02:12:49;;;;;;;6.38;2.20;;;13.80;92.80;;;;;;5033462;28;20018;-65
2022/10/06 02:15:15;;;;;;;9.75;2.67;;;13.80;93.10;;;;;;5034290;28;20040;-65
2022/10/06 02:17:40;;;;;;;4.75;1.98;;;13.60;93.50;;;;;;5034815;28;20029;-65
2022/10/06 02:20:06;;;;;;;5.40;2.45;;;13.50;94.20;;;;;;5028254;28;20033;-65
2022/10/06 02:22:40;;;;;;;5.85;2.00;;;13.50;93.70;;;;;;5030583;28;20041;-65
2022/10/06 02:25:06;;;;;;;6.55;2.10;;;13.40;94.30;;;;;;5030918;28;20044;-65
2022/10/06 02:27:32;;;;;;;7.80;2.28;;;13.40;94.00;;;;;;5032213;28;20033;-65
2022/10/06 02:29:57;;;;;;;6.25;2.13;;;13.60;93.10;;;;;;5033402;28;20025;-65
2022/10/06 02:32:23;;;;;;;10.38;2.40;;;13.80;92.80;;;;;;5031788;28;20028;-65
2022/10/06 02:34:49;;;;;;;6.25;2.15;;;14.00;92.10;;;;;;5031862;28;20029;-65
2022/10/06 02:37:15;;;;;;;9.35;2.72;;;14.00;91.80;;;;;;5033924;28;20057;-64
2022/10/06 02:39:41;;;;;;;4.78;1.80;;;14.00;92.30;;;;;;5030568;28;20029;-65
2022/10/06 02:42:07;;;;;;;4.72;1.90;;;13.90;92.90;;;;;;5036028;28;20036;-65
2022/10/06 02:44:32;;;;;;;4.82;2.20;;;13.60;93.50;;;;;;5030408;28;20040;-64
2022/10/06 02:46:58;;;;;;;4.88;1.95;;;13.50;93.60;;;;;;5027886;28;20029;-65
2022/10/06 02:49:24;;;;;;;6.18;2.22;;;13.40;94.00;;;;;;5025717;28;20180;-65
2022/10/06 02:51:50;;;;;;;7.03;2.97;;;13.20;95.00;;;;;;5034936;28;20063;-65
2022/10/06 02:54:16;;;;;;;6.13;2.45;;;13.10;95.10;;;;;;5030924;28;20057;-65
2022/10/06 02:56:42;;;;;;;7.70;2.35;;;12.80;95.70;;;;;;5032497;28;20030;-65
2022/10/06 02:59:07;;;;;;;6.60;2.30;;;12.60;96.80;;;;;;5024138;28;20033;-65
2022/10/06 03:01:33;;;;;;;7.35;2.35;;;12.30;97.30;;;;;;5028995;28;20029;-67
2022/10/06 03:03:59;;;;;;;8.23;2.40;;;12.00;98.00;;;;;;5028219;28;20036;-65
2022/10/06 03:06:27;;;;;;;6.95;2.95;;;12.10;97.90;;;;;;5033831;28;20160;-65
2022/10/06 03:09:02;;;;;;;6.00;2.47;;;12.10;98.00;;;;;;5033010;28;20036;-65
2022/10/06 03:11:33;;;;;;;6.40;2.53;;;12.00;98.00;;;;;;5032580;28;20021;-65
2022/10/06 03:13:59;;;;;;;5.88;2.33;;;11.90;98.00;;;;;;5032814;28;20416;-65
2022/10/06 03:16:39;;;;;;;7.78;2.40;;;11.90;98.00;;;;;;5031538;28;20108;-65
2022/10/06 03:19:06;;;;;;;7.07;2.40;;;11.90;98.00;;;;;;5030817;28;20163;-65
2022/10/06 03:21:38;;;;;;;5.82;2.55;;;11.90;98.00;;;;;;5032018;28;20029;-65
2022/10/06 03:24:04;;;;;;;6.00;2.78;;;11.90;98.00;;;;;;5020013;28;20076;-65
2022/10/06 03:26:41;;;;;;;6.53;2.50;;;11.80;98.00;;;;;;5028906;28;20026;-65
2022/10/06 03:29:07;;;;;;;5.65;2.40;;;11.90;98.00;;;;;;5032509;28;20299;-65
2022/10/06 03:31:33;;;;;;;9.73;2.60;;;12.10;98.00;;;;;;5026559;28;20034;-64
2022/10/06 03:33:59;;;;;;;6.50;2.50;;;12.30;98.00;;;;;;5033095;28;20082;-65
2022/10/06 03:36:28;;;;;;;5.07;2.42;;;12.30;97.70;;;;;;5032357;28;20329;-65
2022/10/06 03:38:54;;;;;;;6.97;2.40;;;12.40;97.60;;;;;;5031755;28;20026;-65
2022/10/06 03:41:29;;;;;;;6.45;2.33;;;12.60;97.40;;;;;;5034108;28;20021;-65
2022/10/06 03:43:57;;;;;;;5.18;2.42;;;12.90;96.50;;;;;;5031250;28;20029;-63
2022/10/06 03:46:29;;;;;;;6.75;2.17;;;13.20;96.00;;;;;;5033546;28;20017;-64
2022/10/06 03:48:59;;;;;;;5.25;2.38;;;13.40;95.30;;;;;;5033640;28;20025;-64
2022/10/06 03:51:46;;;;;;;8.55;2.60;;;13.50;95.00;;;;;;5041411;28;20349;-63
2022/10/06 03:54:12;;;;;;;6.32;2.40;;;13.60;94.20;;;;;;5029024;28;20052;-63
2022/10/06 03:56:40;;;;;;;5.82;2.47;;;13.70;94.40;;;;;;5034800;28;20026;-63
2022/10/06 03:59:08;;;;;;;6.25;2.80;;;13.70;94.20;;;;;;5033709;28;20091;-64
2022/10/06 04:01:44;;;;;;;6.78;2.67;;;13.70;94.40;;;;;;5030848;28;20029;-64
2022/10/06 04:04:11;;;;;;;5.20;2.60;;;13.70;94.50;;;;;;5032777;28;20025;-64
2022/10/06 04:06:39;;;;;;;8.15;3.20;;;13.70;94.60;;;;;;5033192;28;20021;-64
2022/10/06 04:09:07;;;;;;;7.00;2.83;;;13.80;94.80;;;;;;5022664;28;20056;-65
2022/10/06 04:11:36;;;;;;;5.38;2.55;;;13.90;94.70;;;;;;5023186;28;20029;-65
2022/10/06 04:14:08;;;;;;;5.75;2.80;;;14.00;94.60;;;;;;5034498;28;20137;-65
2022/10/06 04:16:35;;;;;;;5.55;2.80;;;14.20;94.40;;;;;;5034568;28;20295;-65
2022/10/06 04:19:03;;;;;;;8.00;2.97;;;14.20;94.00;;;;;;5033331;28;20025;-65
2022/10/06 04:21:31;;;;;;;5.88;2.33;;;14.20;94.20;;;;;;5033911;28;20044;-65
2022/10/06 04:23:58;;;;;;;5.53;2.88;;;14.20;94.50;;;;;;5033326;28;20033;-65
2022/10/06 04:26:26;;;;;;;5.72;2.50;;;14.30;94.30;;;;;;5035802;28;20025;-64
2022/10/06 04:28:52;;;;;;;7.05;2.95;;;14.20;94.30;;;;;;5029614;28;20028;-65
2022/10/06 04:31:35;;;;;;;7.30;3.03;;;14.30;94.00;;;;;;5037325;28;20022;-65
2022/10/06 04:34:00;;;;;;;4.30;2.35;;;14.40;93.90;;;;;;5039973;28;20025;-65
2022/10/06 04:36:32;;;;;;;5.85;2.55;;;14.30;94.70;;;;;;5039469;28;20460;-65
2022/10/06 04:39:01;;;;;;;7.13;3.00;;;14.40;94.40;;;;;;5036289;28;20108;-65
2022/10/06 04:41:32;;;;;;;5.82;2.38;;;14.50;94.40;;;;;;5037571;28;20045;-65
2022/10/06 04:43:58;;;;;;;7.07;2.97;;;14.60;94.30;;;;;;5037519;28;20041;-64
2022/10/06 04:46:25;;;;;;;9.13;2.58;;;14.60;94.40;;;;;;5030817;28;20032;-65
2022/10/06 04:48:52;;;;;;;5.28;2.60;;;14.70;94.30;;;;;;5032593;28;20021;-65
2022/10/06 04:51:19;;;;;;;6.00;2.30;;;14.80;94.10;;;;;;5025341;28;20030;-65
2022/10/06 04:53:46;;;;;;;9.30;2.95;;;14.80;93.90;;;;;;5029744;28;20022;-65
2022/10/06 04:56:12;;;;;;;5.70;2.67;;;14.80;93.90;;;;;;5037894;28;20029;-65
2022/10/06 04:58:41;;;;;;;7.53;2.88;;;14.80;93.50;;;;;;5036378;28;20022;-65
2022/10/06 05:01:18;;;;;;;8.57;2.72;;;14.80;93.50;;;;;;5032620;28;20056;-66
2022/10/06 05:03:45;;;;;;;7.25;2.80;;;14.60;94.10;;;;;;5034220;28;20026;-65
2022/10/06 05:06:20;;;;;;;9.02;2.80;;;14.50;94.40;;;;;;5027844;28;20029;-65
2022/10/06 05:08:50;;;;;;;8.23;2.58;;;14.40;94.50;;;;;;5030225;28;20330;-65
2022/10/06 05:11:17;;;;;;;8.00;2.83;;;14.30;94.70;;;;;;5034351;28;20041;-65
2022/10/06 05:13:43;;;;;;;5.68;2.75;;;14.20;95.20;;;;;;5034140;28;20362;-65
2022/10/06 05:16:12;;;;;;;10.63;3.13;;;14.00;95.80;;;;;;5037749;28;20061;-65
2022/10/06 05:18:38;;;;;;;7.43;3.08;;;13.80;96.10;;;;;;5037914;28;20099;-65
2022/10/06 05:21:05;;;;;;;7.35;2.95;;;13.70;96.30;;;;;;5037047;28;20033;-65
2022/10/06 05:23:32;;;;;;;7.35;2.95;;;13.60;96.50;;;;;;5037711;28;20037;-65
2022/10/06 05:25:59;;;;;;;8.88;3.15;;;13.50;96.90;;;;;;5037546;28;20044;-65
2022/10/06 05:28:26;;;;;;;6.93;2.90;;;13.40;97.10;;;;;;5035768;28;20060;-65
2022/10/06 05:31:12;;;;;;;6.25;3.13;;;13.30;97.30;;;;;;5031467;28;20032;-65
2022/10/06 05:33:38;;;;;;;7.55;3.30;;;13.30;97.30;;;;;;5029309;28;20029;-66
2022/10/06 05:36:13;;;;;;;7.47;3.28;;;13.10;97.60;;;;;;5036464;28;20067;-66
2022/10/06 05:38:39;;;;;;;7.22;3.10;;;12.90;97.90;;;;;;5035878;28;20497;-65
2022/10/06 05:41:10;;;;;;;8.32;4.05;;;12.70;98.00;;;;;;5037452;28;20041;-66
2022/10/06 05:43:36;;;;;;;12.30;4.00;;;12.50;98.00;;;;;;5036685;28;20017;-65
2022/10/06 05:46:04;;;;;;;9.57;4.05;;;12.30;98.00;;;;;;5037392;28;20036;-66
2022/10/06 05:48:30;;;;;;;7.90;3.80;;;12.20;98.00;;;;;;5036595;28;20033;-66
2022/10/06 05:51:08;;;;;;;8.35;3.50;;;12.20;98.00;;;;;;5038167;28;20103;-66
2022/10/06 05:53:37;;;;;;;8.43;4.10;;;12.00;97.80;;;;;;5037502;28;20029;-66
2022/10/06 05:56:09;;;;;;;6.60;4.00;;;11.90;97.10;;;;;;5037215;28;20437;-66
2022/10/06 05:58:36;;;;;;;9.93;4.00;;;11.90;97.20;;;;;;5036949;28;20068;-66
2022/10/06 06:01:16;;;;;;;10.02;3.90;;;11.80;96.60;;;;;;5041680;28;20031;-66
2022/10/06 06:03:45;;;;;;;7.40;3.65;;;11.90;96.50;;;;;;5042330;28;20033;-66
2022/10/06 06:06:22;;;;;;;8.43;3.97;;;12.10;97.10;;;;;;5038028;28;20080;-65
2022/10/06 06:08:52;;;;;;;6.72;3.60;;;12.10;97.40;;;;;;5027845;28;20311;-66
2022/10/06 06:11:18;;;;;;;6.18;3.25;;;12.10;97.00;;;;;;5036607;28;20109;-66
2022/10/06 06:13:44;;;;;;;7.43;2.88;;;12.00;97.10;;;;;;5036525;28;20104;-66
2022/10/06 06:16:14;;;;;;;7.53;3.63;;;12.00;96.80;;;;;;5034623;28;20037;-66
2022/10/06 06:18:40;;;;;;;10.00;3.75;;;12.10;96.70;;;;;;5034471;28;20373;-66
2022/10/06 06:21:08;;;;;;;5.97;3.80;;;12.20;96.70;;;;;;5037703;28;20049;-66
2022/10/06 06:23:40;;;;;;;9.85;4.75;;;12.30;96.80;;;;;;5034879;28;21783;-65
2022/10/06 06:26:08;;;;;;;7.47;4.05;;;12.50;96.70;;;;;;5034754;28;20040;-66
2022/10/06 06:28:35;;;;;;;10.18;4.22;;;12.80;97.70;;;;;;5036138;28;20121;-66
2022/10/06 06:31:10;;;;;;;8.20;3.90;;;12.90;98.00;;;;;;5035420;28;20596;-66
2022/10/06 06:33:36;;;;;;;;;;;13.10;98.00;;;;;;5032752;28;20053;-65
2022/10/06 06:36:11;;;;;;;9.38;4.10;;;13.20;98.00;;;;;;5012557;28;20233;-66
2022/10/06 06:38:37;;;;;;;10.23;4.43;;;13.30;98.00;;;;;;5012730;28;20044;-66
2022/10/06 06:41:14;;;;;;;8.18;4.15;;;13.60;98.00;;;;;;5017556;28;20026;-66
2022/10/06 06:43:40;;;;;;;8.48;4.20;;;13.80;98.00;;;;;;5018719;28;20022;-64
2022/10/06 06:46:07;;;;;;;8.75;4.20;;;13.90;98.00;;;;;;5036903;28;20021;-64
2022/10/06 06:48:36;;;;;;;8.07;4.55;;;14.00;98.00;;;;;;5037351;28;20128;-64
2022/10/06 06:51:06;;;;;;;10.63;3.75;;;14.10;98.00;;;;;;5013083;28;20021;-65
2022/10/06 06:53:32;;;;;;;7.47;4.05;;;14.30;98.00;;;;;;5016837;28;20042;-65
2022/10/06 06:55:58;;;;;;;10.23;4.07;;;14.40;98.00;;;;;;5014573;28;20094;-66
2022/10/06 06:58:23;;;;;;;7.82;4.03;;;14.60;98.00;;;;;;5012529;28;20045;-66
2022/10/06 07:00:51;;;;;;;8.85;4.00;;;14.80;98.00;;;;;;5019784;28;20361;-66
2022/10/06 07:03:20;;;;;;;8.70;3.50;;;15.10;97.50;;;;;;5016807;28;20339;-66
2022/10/06 07:05:46;;;;;;;8.15;3.17;;;15.30;96.60;;;;;;5017842;28;20021;-66
2022/10/06 07:08:18;;;;;;;11.00;3.58;;;15.50;96.30;;;;;;5011442;28;20814;-65
2022/10/06 07:10:44;;;;;;;7.47;3.13;;;15.70;95.60;;;;;;5015418;28;20399;-66
2022/10/06 07:13:14;;;;;;;5.78;3.10;;;15.70;95.10;;;;;;5014886;28;20029;-64
2022/10/06 07:26:42;;;;;;;13.30;6.22;;;15.80;95.00;;;;;;5022966;28;20032;-65
2022/10/06 07:29:08;;;;;;;12.02;5.43;;;15.60;95.00;;;;;;5013274;28;20079;-65
2022/10/06 07:31:35;;;;;;;9.82;5.68;;;15.50;95.50;;;;;;5024089;28;20025;-66
2022/10/06 07:34:03;;;;;;;9.23;4.50;;;15.40;95.60;;;;;;5027631;28;20109;-65
2022/10/06 07:36:32;;;;;;;11.13;5.88;;;15.20;96.20;;;;;;5011055;28;20496;-65
2022/10/06 07:38:58;;;;;;;12.13;5.88;;;15.20;96.40;;;;;;5010260;28;20112;-65
2022/10/06 07:41:25;;;;;;;11.55;6.07;;;15.10;96.10;;;;;;5015877;28;20029;-65
2022/10/06 07:43:53;;;;;;;13.32;5.60;;;15.00;96.20;;;;;;5012882;28;20159;-65
2022/10/06 07:46:19;;;;;;;7.78;4.53;;;14.90;96.80;;;;;;5012547;28;20064;-65
2022/10/06 07:48:48;;;;;;;7.65;4.10;;;14.80;96.60;;;;;;5010417;28;20137;-65
2022/10/06 07:51:16;;;;;;;12.82;5.93;;;14.70;96.70;;;;;;5016638;28;20034;-65
2022/10/06 07:53:43;;;;;;;12.18;6.15;;;14.70;96.90;;;;;;5013159;28;20022;-64
2022/10/06 07:56:11;;;;;;;20.02;9.18;;;14.70;97.00;;;;;;5014753;28;20021;-65
2022/10/06 07:58:37;;;;;;;13.38;6.75;;;14.70;97.20;;;;;;5017232;28;20028;-65
2022/10/06 08:01:11;;;;;;;9.50;4.70;;;14.70;97.10;;;;;;5016698;28;20055;-65
2022/10/06 08:03:37;;;;;;;12.50;4.57;;;14.80;97.30;;;;;;5013658;28;20055;-65
2022/10/06 08:06:03;;;;;;;13.18;5.00;;;14.80;97.50;;;;;;5012765;28;20052;-65
2022/10/06 08:08:31;;;;;;;11.45;4.72;;;14.90;97.40;;;;;;5014388;28;20030;-65
2022/10/06 08:10:58;;;;;;;10.80;4.55;;;15.00;97.50;;;;;;5011318;28;20040;-64
2022/10/06 08:13:24;;;;;;;10.80;4.28;;;15.10;97.30;;;;;;5011372;28;20040;-65
2022/10/06 08:15:53;;;;;;;8.98;5.32;;;15.20;97.00;;;;;;5012945;28;20025;-65
2022/10/06 08:18:20;;;;;;;10.65;4.60;;;15.10;97.30;;;;;;5020401;28;20082;-64
2022/10/06 08:20:45;;;;;;;8.02;4.55;;;15.10;97.30;;;;;;5028664;28;20119;-65
2022/10/06 08:23:12;;;;;;;9.75;4.40;;;15.10;97.40;;;;;;5035745;28;20434;-65
2022/10/06 08:25:42;;;;;;;9.98;4.65;;;15.10;97.20;;;;;;5033010;28;20029;-65
2022/10/06 08:28:11;;;;;;;9.52;4.43;;;15.20;97.10;;;;;;5028708;28;20041;-65
2022/10/06 08:30:38;;;;;;;8.20;4.03;;;15.40;96.80;;;;;;5011738;28;20423;-65
2022/10/06 08:33:04;;;;;;;9.43;5.63;;;15.70;96.30;;;;;;5024426;28;20033;-65
2022/10/06 08:35:31;;;;;;;9.35;4.15;;;15.80;95.60;;;;;;5010948;28;20034;-65
2022/10/06 08:37:57;;;;;;;10.55;7.53;;;15.70;96.10;;;;;;5013540;28;20050;-65
2022/10/06 08:40:25;;;;;;;8.65;4.40;;;15.70;96.10;;;;;;5011555;28;20037;-66
2022/10/06 08:42:57;;;;;;;8.25;3.90;;;15.70;96.50;;;;;;5012109;28;20316;-64
2022/10/06 08:45:34;;;;;;;6.47;3.72;;;15.80;96.20;;;;;;5010317;28;20391;-65
2022/10/06 08:48:03;;;;;;;7.28;3.47;;;15.90;96.20;;;;;;5011421;28;20025;-65
2022/10/06 08:50:37;;;;;;;8.73;3.80;;;15.90;96.00;;;;;;5015171;28;20076;-65
2022/10/06 08:53:22;;;;;;;8.20;4.13;;;15.90;96.00;;;;;;5010671;28;20038;-64
2022/10/06 08:55:52;;;;;;;9.23;4.88;;;15.90;96.50;;;;;;5011847;28;20090;-65
2022/10/06 08:58:29;;;;;;;9.90;4.68;;;15.90;96.70;;;;;;5014652;28;20438;-65
2022/10/06 09:01:23;;;;;;;10.18;5.05;;;15.80;97.10;;;;;;5017258;28;20072;-65
2022/10/06 09:03:52;;;;;;;8.07;4.18;;;15.70;97.10;;;;;;5010109;28;20132;-65
2022/10/06 09:06:42;;;;;;;9.07;4.25;;;15.60;97.20;;;;;;5011482;28;20042;-66
2022/10/06 09:09:32;;;;;;;9.85;4.10;;;15.70;97.50;;;;;;5011321;28;20087;-74
2022/10/06 09:12:10;;;;;;;7.55;3.85;;;15.80;97.30;;;;;;5010241;28;20039;-65
2022/10/06 09:14:50;;;;;;;12.85;6.90;;;15.90;97.20;;;;;;5011511;28;20045;-65
2022/10/06 09:17:23;;;;;;;6.95;3.42;;;16.00;96.90;;;;;;5016935;28;20115;-66
2022/10/06 09:20:19;;;;;;;6.32;2.53;;;16.30;95.80;;;;;;5016485;28;20357;-65
2022/10/06 09:22:47;;;;;;;10.90;4.40;;;16.50;94.40;;;;;;5017282;28;20030;-65
2022/10/06 09:25:20;;;;;;;6.47;3.33;;;16.70;94.00;;;;;;5018134;28;20026;-66
2022/10/06 09:27:50;;;;;;;12.90;4.88;;;16.90;93.40;;;;;;5018391;28;20140;-65
2022/10/06 09:30:17;;;;;;;8.13;3.10;;;17.10;93.30;;;;;;5020864;28;20104;-66
2022/10/06 09:32:46;;;;;;;6.65;2.63;;;17.20;92.40;;;;;;5027892;28;20029;-66
2022/10/06 09:35:18;;;;;;;7.45;2.60;;;17.20;91.70;;;;;;5016678;28;20111;-66
2022/10/06 09:38:03;;;;;;;7.40;2.95;;;17.30;92.10;;;;;;5013532;28;20124;-65
2022/10/06 09:40:48;;;;;;;6.97;2.28;;;17.50;91.90;;;;;;5019287;28;20122;-64
2022/10/06 09:43:28;;;;;;;7.60;2.75;;;17.70;91.20;;;;;;5014927;28;20037;-64
2022/10/06 09:45:56;;;;;;;7.05;2.65;;;18.00;90.70;;;;;;5014427;28;20068;-64
2022/10/06 09:48:24;;;;;;;6.28;2.63;;;17.90;90.30;;;;;;5017158;28;20589;-64
2022/10/06 09:51:13;;;;;;;10.68;4.43;;;17.80;89.50;;;;;;5014112;28;20359;-66
2022/10/06 09:54:14;;;;;;;8.75;3.75;;;17.50;90.30;;;;;;5014843;28;20037;-65
2022/10/06 09:56:46;;;;;;;10.98;2.97;;;17.00;91.90;;;;;;5019080;28;20025;-66
2022/10/06 09:59:30;;;;;;;6.40;2.13;;;16.70;92.90;;;;;;5014907;28;20064;-65
2022/10/06 10:01:58;;;;;;;7.28;2.58;;;16.40;93.10;;;;;;5021209;28;20025;-65
2022/10/06 10:04:33;;;;;;;5.85;2.60;;;16.30;92.70;;;;;;5018362;28;20117;-66
2022/10/06 10:07:23;;;;;;;4.95;2.45;;;16.50;92.90;;;;;;5013864;28;20080;-66
2022/10/06 10:09:50;;;;;;;10.85;2.92;;;16.70;91.90;;;;;;5013274;28;20029;-65
2022/10/06 10:12:24;;;;;;;5.93;2.00;;;16.90;90.90;;;;;;5016284;28;20044;-65
2022/10/06 10:15:03;;;;;;;7.93;3.63;;;17.10;90.00;;;;;;5031240;28;20029;-65
2022/10/06 10:17:32;;;;;;;9.77;3.17;;;17.10;90.60;;;;;;5034456;28;20060;-66
2022/10/06 10:20:00;;;;;;;9.48;3.47;;;16.80;90.80;;;;;;5037864;28;20108;-66
2022/10/06 10:22:31;;;;;;;6.90;2.67;;;16.80;91.60;;;;;;5038074;28;20346;-66
2022/10/06 10:25:27;;;;;;;7.97;2.92;;;16.90;91.60;;;;;;5036574;28;20035;-65
2022/10/06 10:27:58;;;;;;;7.72;2.72;;;17.10;91.80;;;;;;5036842;28;20056;-66
2022/10/06 10:30:23;;;;;;;7.70;2.53;;;17.10;90.20;;;;;;5037766;28;20022;-66
2022/10/06 10:33:19;;;;;;;6.75;2.70;;;16.90;90.80;;;;;;5036353;28;20032;-66
2022/10/06 10:35:49;;;;;;;7.15;2.83;;;16.80;90.30;;;;;;5037017;28;20342;-66
2022/10/06 10:38:18;;;;;;;6.28;2.60;;;16.90;90.80;;;;;;5037491;28;20099;-65
2022/10/06 10:40:49;;;;;;;5.40;1.98;;;17.40;89.00;;;;;;5036418;28;20112;-66
2022/10/06 10:43:20;;;;;;;5.50;2.10;;;18.00;88.50;;;;;;5037200;28;20442;-66
2022/10/06 10:45:57;;;;;;;8.88;2.38;;;18.50;86.40;;;;;;5036134;28;20044;-66
2022/10/06 10:48:42;;;;;;;6.55;2.30;;;18.90;84.50;;;;;;5036766;28;20068;-66
2022/10/06 10:51:33;;;;;;;7.10;2.13;;;19.10;83.70;;;;;;5037192;28;20040;-66
2022/10/06 10:54:12;;;;;;;6.38;2.30;;;19.00;83.70;;;;;;5036116;28;20076;-65
2022/10/06 10:56:39;;;;;;;5.68;2.28;;;19.20;84.50;;;;;;5037176;28;20026;-66
2022/10/06 10:59:20;;;;;;;6.65;2.50;;;19.60;83.20;;;;;;5037216;28;20096;-65
2022/10/06 11:02:00;;;;;;;8.38;2.70;;;19.80;81.80;;;;;;5035922;28;20021;-65
2022/10/06 11:04:26;;;;;;;7.85;2.40;;;19.70;82.10;;;;;;5036001;28;20021;-66
2022/10/06 11:07:25;;;;;;;7.72;2.30;;;19.60;82.60;;;;;;5037098;28;20425;-66
2022/10/06 11:10:04;;;;;;;7.53;2.60;;;19.70;82.20;;;;;;5034451;28;20060;-66
2022/10/06 11:12:32;;;;;;;9.95;2.20;;;19.90;82.00;;;;;;5036007;28;20100;-65
2022/10/06 11:15:17;;;;;;;9.35;1.90;;;19.90;80.70;;;;;;5035094;28;20373;-65
2022/10/06 11:17:49;;;;;;;7.50;2.15;;;19.40;83.30;;;;;;5033563;28;20075;-65
2022/10/06 11:20:42;;;;;;;6.07;2.17;;;19.00;83.50;;;;;;5036541;28;20021;-64
2022/10/06 11:23:21;;;;;;;10.03;2.30;;;18.80;84.20;;;;;;5035594;28;20112;-66
2022/10/06 11:26:09;;;;;;;8.68;2.70;;;18.80;84.40;;;;;;5034592;28;20376;-65
2022/10/06 11:28:44;;;;;;;8.88;2.50;;;18.50;85.50;;;;;;5035525;28;20318;-66
2022/10/06 11:31:30;;;;;;;9.93;2.22;;;18.70;84.70;;;;;;5034443;28;20029;-66
2022/10/06 11:34:00;;;;;;;7.25;2.42;;;18.70;84.40;;;;;;5036643;28;20024;-66
2022/10/06 11:36:37;;;;;;;5.90;1.85;;;18.80;83.80;;;;;;5034071;28;20029;-66
2022/10/06 11:39:36;;;;;;;7.75;2.28;;;18.80;83.10;;;;;;5035268;28;20033;-66
2022/10/06 11:42:14;;;;;;;6.75;2.03;;;18.40;83.70;;;;;;5036575;28;20096;-65
2022/10/06 11:44:44;;;;;;;7.93;2.05;;;18.30;84.70;;;;;;5036309;28;20032;-66
2022/10/06 11:47:16;;;;;;;8.68;1.92;;;19.10;83.60;;;;;;5035144;28;20093;-66
2022/10/06 11:49:55;;;;;;;5.93;2.08;;;20.30;80.60;;;;;;5036250;28;20033;-66
2022/10/06 11:52:20;;;;;;;9.30;2.10;;;20.90;78.50;;;;;;5035062;28;20013;-66
2022/10/06 11:54:54;;;;;;;6.05;1.80;;;21.10;78.90;;;;;;5034963;28;20582;-66
2022/10/06 11:57:22;;;;;;;6.40;1.90;;;21.40;77.00;;;;;;5036303;28;20025;-66
2022/10/06 11:59:54;;;;;;;6.65;2.03;;;21.30;78.00;;;;;;5036175;28;20040;-66
2022/10/06 12:02:29;;;;;;;6.43;1.65;;;21.10;77.10;;;;;;5036031;28;20071;-66
2022/10/06 12:05:13;;;;;;;5.88;2.25;;;21.20;77.50;;;;;;5036107;28;20032;-66
2022/10/06 12:08:00;;;;;;;9.05;2.38;;;21.30;76.00;;;;;;5034854;28;20414;-67
2022/10/06 12:10:29;;;;;;;6.85;1.83;;;20.40;77.90;;;;;;5024368;28;20422;-66
2022/10/06 12:13:32;;;;;;;10.57;2.13;;;20.60;78.70;;;;;;5035754;28;20026;-66
2022/10/06 12:16:01;;;;;;;5.53;2.10;;;20.50;77.40;;;;;;5035890;28;20029;-66
2022/10/06 12:18:53;;;;;;;5.47;1.83;;;20.60;78.40;;;;;;5035951;28;20029;-66
2022/10/06 12:22:21;;;;;;;7.35;2.00;;;21.00;78.60;;;;;;5027819;28;20038;-66
2022/10/06 12:25:05;;;;;;;6.70;1.92;;;21.80;76.40;;;;;;5023003;28;20299;-66
2022/10/06 12:27:38;;;;;;;6.75;2.13;;;22.10;75.10;;;;;;5035864;28;20437;-66
2022/10/06 12:30:15;;;;;;;7.55;2.20;;;21.50;74.80;;;;;;5035834;28;20064;-66
2022/10/06 12:32:52;;;;;;;5.57;1.90;;;20.90;76.80;;;;;;5035761;28;20025;-66
2022/10/06 12:35:29;;;;;;;6.70;2.05;;;20.90;77.30;;;;;;5035923;28;20029;-66
2022/10/06 12:38:03;;;;;;;5.30;1.90;;;21.60;76.00;;;;;;5032783;28;20052;-66
2022/10/06 12:40:41;;;;;;;7.32;1.70;;;21.80;76.50;;;;;;5033554;28;20037;-66
2022/10/06 12:43:21;;;;;;;5.10;2.20;;;21.50;76.70;;;;;;5035726;28;20030;-66
2022/10/06 12:46:20;;;;;;;6.95;2.00;;;21.10;75.80;;;;;;5035774;28;20049;-66
2022/10/06 12:48:54;;;;;;;7.22;2.13;;;20.60;78.10;;;;;;5035714;28;20171;-64
2022/10/06 12:51:38;;;;;;;7.82;2.00;;;20.40;78.50;;;;;;5036887;28;20072;-64
2022/10/06 12:54:18;;;;;;;;;;;20.70;78.40;;;;;;5037409;28;20025;-64
2022/10/06 12:57:00;;;;;;;7.45;1.83;;;20.40;78.70;;;;;;5038027;28;19909;-64
2022/10/06 12:59:34;;;;;;;7.95;2.33;;;20.50;79.20;;;;;;5037135;28;20095;-66
2022/10/06 13:02:22;;;;;;;9.05;2.92;;;20.70;76.80;;;;;;5037191;28;20025;-66
2022/10/06 13:04:53;;;;;;;5.93;2.10;;;20.90;77.70;;;;;;5039216;28;20072;-66
2022/10/06 13:07:27;;;;;;;4.25;1.80;;;20.30;79.40;;;;;;5038283;28;20024;-66
2022/10/06 13:10:13;;;;;;;6.05;2.00;;;20.00;80.60;;;;;;5038204;28;20025;-66
2022/10/06 13:12:40;;;;;;;6.68;2.10;;;19.90;80.70;;;;;;5038255;28;20097;-66
2022/10/06 13:15:12;;;;;;;10.50;2.30;;;19.90;81.10;;;;;;5037941;28;20057;-65
2022/10/06 13:17:46;;;;;;;7.88;1.92;;;20.10;79.20;;;;;;5037068;28;20025;-65
2022/10/06 13:20:30;;;;;;;6.95;2.20;;;19.90;79.60;;;;;;5037929;28;20119;-65